»·PEaware :: N721AP KLAX-KSAN

N721AP :: KLAX-KSAN

FLIGHT INFORMATION

Flight Status: Arrived
Operator: Privately registered:
United States
More flights under this callsign
Pilot: Sally S. (18014)
Aircraft: Unknown
(SF50)
More flights by this aircraft type
Origin: KLAX Los Angeles Intl
United States
Destination: KSAN San Diego Intl-Lindbergh
United States
More flights between these airports :: More routes between these airports
Route: PACIF
File this flight plan on PilotEdge
Remarks: cat 11
Altitude:
(Current/Filed)
11,500ft
Speed:
(Current/Filed)
110kts
Departed: 10-Feb-18 11:52 AM
Arrived: 10-Feb-18 12:49 PM
Distance/Time
Traveled:
95nm/0:57
Distance/Time
To Go:
Arrived

Flight Plot

Page will automatically refresh every two minutes.

Flight plan parsing failed; only flown route is shown


Map Options




Map Legend


Flown Route
Filed Route
Departure Airport
Arrival Airport
Navaid (VOR, NDB)
Fix

Horizontal Profiles

Position Reports

Time Latitude Longitude Heading Altitude Ground
Speed
10-Feb-18 11:48 33.933264 -118.397426 264 129ft 0kts
10-Feb-18 11:49 33.933264 -118.397426 264 129ft 0kts
10-Feb-18 11:50 33.933264 -118.397426 264 129ft 0kts
10-Feb-18 11:51 33.933264 -118.397426 264 129ft 0kts
10-Feb-18 11:52 33.933264 -118.397426 264 129ft 0kts
10-Feb-18 11:53 33.933264 -118.397426 264 129ft 0kts
10-Feb-18 11:54 33.934382 -118.398040 20 129ft 13kts
10-Feb-18 11:55 33.935024 -118.393208 78 129ft 12kts
10-Feb-18 11:56 33.935832 -118.385520 79 129ft 20kts
10-Feb-18 11:57 33.936442 -118.382802 9 129ft 0kts
10-Feb-18 11:58 33.936442 -118.382802 9 129ft 0kts
10-Feb-18 11:59 33.936903 -118.387331 263 129ft 85kts
10-Feb-18 12:00 33.934858 -118.429146 267 2531ft 130kts
10-Feb-18 12:01 33.932396 -118.490235 267 3006ft 216kts
10-Feb-18 12:02 33.929365 -118.565426 267 3001ft 229kts
10-Feb-18 12:03 33.882736 -118.587843 171 4620ft 194kts
10-Feb-18 12:04 33.830642 -118.578187 171 7462ft 195kts
10-Feb-18 12:05 33.776309 -118.568104 171 9943ft 203kts
10-Feb-18 12:06 33.718196 -118.557318 171 11510ft 241kts
10-Feb-18 12:07 33.646531 -118.544025 171 11490ft 245kts
10-Feb-18 12:08 33.604287 -118.500193 112 11496ft 208kts
10-Feb-18 12:09 33.582316 -118.442776 116 11493ft 175kts
10-Feb-18 12:10 33.561662 -118.393278 117 11495ft 158kts
10-Feb-18 12:11 33.542497 -118.347946 117 11497ft 149kts
10-Feb-18 12:12 33.521899 -118.299425 117 11514ft 188kts
10-Feb-18 12:13 33.495759 -118.237980 117 11504ft 221kts
10-Feb-18 12:14 33.466836 -118.170096 117 11501ft 234kts
10-Feb-18 12:15 33.436915 -118.099996 117 11500ft 239kts
10-Feb-18 12:16 33.406493 -118.028862 117 11500ft 240kts
10-Feb-18 12:17 33.376004 -117.957712 117 11498ft 239kts
10-Feb-18 12:18 33.347296 -117.890830 117 11495ft 215kts
10-Feb-18 12:19 33.320646 -117.828864 117 11498ft 205kts
10-Feb-18 12:20 33.294882 -117.769066 117 11499ft 200kts
10-Feb-18 12:21 33.256506 -117.718560 139 10649ft 219kts
10-Feb-18 12:22 33.210633 -117.671553 139 9900ft 216kts
10-Feb-18 12:23 33.165374 -117.625520 139 8931ft 213kts
10-Feb-18 12:24 33.120575 -117.580043 139 7868ft 210kts
10-Feb-18 12:25 33.075088 -117.564045 262 7026ft 195kts
10-Feb-18 12:26 33.073713 -117.628401 262 6072ft 198kts
10-Feb-18 12:27 33.077260 -117.688307 334 5500ft 179kts
10-Feb-18 12:28 33.122743 -117.693759 357 5494ft 153kts
10-Feb-18 12:29 33.163212 -117.696199 357 5496ft 139kts
10-Feb-18 12:30 33.195941 -117.683690 61 5509ft 140kts
10-Feb-18 12:31 33.214704 -117.642243 61 5499ft 141kts
10-Feb-18 12:32 33.233145 -117.601457 61 5499ft 138kts
10-Feb-18 12:33 33.218146 -117.566915 143 5500ft 136kts
10-Feb-18 12:34 33.187711 -117.539966 143 5506ft 144kts
10-Feb-18 12:35 33.154074 -117.510426 152 5500ft 155kts
10-Feb-18 12:35 33.136527 -117.535660 281 5509ft 158kts
10-Feb-18 12:36 33.146130 -117.587730 282 5500ft 162kts
10-Feb-18 12:37 33.134230 -117.633275 180 5498ft 170kts
10-Feb-18 12:38 33.112881 -117.587350 102 5526ft 177kts
10-Feb-18 12:39 33.095814 -117.532488 109 5493ft 180kts
10-Feb-18 12:40 33.052968 -117.508379 148 5497ft 177kts
10-Feb-18 12:42 33.008076 -117.523769 196 5506ft 174kts
10-Feb-18 12:42 32.976116 -117.500437 133 5500ft 174kts
10-Feb-18 12:43 32.944218 -117.456787 127 5494ft 175kts
10-Feb-18 12:44 32.923697 -117.403088 101 5493ft 184kts
10-Feb-18 12:45 32.918594 -117.344015 93 5894ft 172kts
10-Feb-18 12:46 32.910703 -117.286812 119 5710ft 199kts
10-Feb-18 12:47 32.861743 -117.259574 162 5469ft 192kts
10-Feb-18 12:48 32.817319 -117.240994 160 4989ft 153kts
10-Feb-18 12:49 32.778095 -117.226700 166 5108ft 148kts
10-Feb-18 12:50 32.734750 -117.216797 175 5167ft 161kts
10-Feb-18 12:51 32.692526 -117.210480 113 4786ft 192kts
10-Feb-18 12:52 32.692712 -117.144873 74 2929ft 164kts
10-Feb-18 12:53 32.720588 -117.141344 305 1467ft 99kts
10-Feb-18 12:54 32.728797 -117.169876 286 238ft 87kts
10-Feb-18 12:55 32.733569 -117.188045 342 21ft 11kts
10-Feb-18 12:56 32.733747 -117.188072 3 21ft 0kts
10-Feb-18 12:57 32.733770 -117.188070 2 21ft 2kts
10-Feb-18 12:58 32.735192 -117.189104 231 21ft 0kts
10-Feb-18 12:59 32.735192 -117.189104 231 21ft 0kts
10-Feb-18 13:00 32.735192 -117.189104 231 21ft 0kts
10-Feb-18 13:02 32.735192 -117.189104 231 21ft 0kts
10-Feb-18 13:03 32.735192 -117.189104 231 21ft 0kts
10-Feb-18 13:04 32.735192 -117.189104 231 21ft 0kts
10-Feb-18 13:05 32.735192 -117.189104 231 21ft 0kts
10-Feb-18 13:06 32.735192 -117.189104 231 21ft 0kts

Navigation Log

Ident Type
Flight plan parsing failed, navigation log unavailable